sensor_id;sensor_type;location;lat;lon;timestamp;noise_LAeq;noise_LA_min;noise_LA_max;noise_LA01;noise_LA95
72805;Laerm;60920;48.748;19.142;2023-06-26T00:02:08;30.82;29.42;37.07;;
72805;Laerm;60920;48.748;19.142;2023-06-26T00:04:33;30.77;29.37;34.95;;
72805;Laerm;60920;48.748;19.142;2023-06-26T00:07:00;30.78;29.14;32.69;;
72805;Laerm;60920;48.748;19.142;2023-06-26T00:09:26;30.54;29.07;32.82;;
72805;Laerm;60920;48.748;19.142;2023-06-26T00:11:51;30.72;29.29;35.33;;
72805;Laerm;60920;48.748;19.142;2023-06-26T00:14:17;30.83;29.20;38.10;;
72805;Laerm;60920;48.748;19.142;2023-06-26T00:16:46;30.68;29.13;34.89;;
72805;Laerm;60920;48.748;19.142;2023-06-26T00:19:11;30.49;29.17;32.37;;
72805;Laerm;60920;48.748;19.142;2023-06-26T00:21:36;30.64;29.16;34.16;;
72805;Laerm;60920;48.748;19.142;2023-06-26T00:24:02;30.56;28.70;34.82;;
72805;Laerm;60920;48.748;19.142;2023-06-26T00:26:27;30.65;29.09;35.39;;
72805;Laerm;60920;48.748;19.142;2023-06-26T00:28:53;31.03;29.14;35.99;;
72805;Laerm;60920;48.748;19.142;2023-06-26T00:31:18;30.66;29.12;32.23;;
72805;Laerm;60920;48.748;19.142;2023-06-26T00:33:43;30.77;29.11;34.58;;
72805;Laerm;60920;48.748;19.142;2023-06-26T00:36:09;30.64;29.26;37.69;;
72805;Laerm;60920;48.748;19.142;2023-06-26T00:38:34;30.98;29.16;34.73;;
72805;Laerm;60920;48.748;19.142;2023-06-26T00:41:00;30.42;29.04;32.13;;
72805;Laerm;60920;48.748;19.142;2023-06-26T00:43:25;30.51;29.00;35.20;;
72805;Laerm;60920;48.748;19.142;2023-06-26T00:45:51;30.64;29.03;34.76;;
72805;Laerm;60920;48.748;19.142;2023-06-26T00:48:16;30.35;28.89;32.09;;
72805;Laerm;60920;48.748;19.142;2023-06-26T00:50:42;30.31;28.34;32.66;;
72805;Laerm;60920;48.748;19.142;2023-06-26T00:53:08;30.40;28.83;34.63;;
72805;Laerm;60920;48.748;19.142;2023-06-26T00:55:34;30.96;28.85;35.86;;
72805;Laerm;60920;48.748;19.142;2023-06-26T00:57:59;30.26;28.79;32.13;;
72805;Laerm;60920;48.748;19.142;2023-06-26T01:00:25;30.23;28.90;31.66;;
72805;Laerm;60920;48.748;19.142;2023-06-26T01:02:50;30.70;29.07;36.59;;
72805;Laerm;60920;48.748;19.142;2023-06-26T01:05:16;30.37;28.95;34.82;;
72805;Laerm;60920;48.748;19.142;2023-06-26T01:07:46;30.28;28.71;33.17;;
72805;Laerm;60920;48.748;19.142;2023-06-26T01:10:12;30.55;28.63;34.58;;
72805;Laerm;60920;48.748;19.142;2023-06-26T01:12:37;30.66;29.03;35.04;;
72805;Laerm;60920;48.748;19.142;2023-06-26T01:15:04;31.01;28.99;38.14;;
72805;Laerm;60920;48.748;19.142;2023-06-26T01:17:29;31.02;29.00;36.15;;
72805;Laerm;60920;48.748;19.142;2023-06-26T01:19:58;30.37;28.69;32.47;;
72805;Laerm;60920;48.748;19.142;2023-06-26T01:22:39;30.63;28.74;35.08;;
72805;Laerm;60920;48.748;19.142;2023-06-26T01:27:46;30.53;29.02;34.51;;
72805;Laerm;60920;48.748;19.142;2023-06-26T01:30:12;30.60;28.91;42.41;;
72805;Laerm;60920;48.748;19.142;2023-06-26T01:32:37;30.55;29.17;32.49;;
72805;Laerm;60920;48.748;19.142;2023-06-26T01:35:05;30.87;29.15;34.36;;
72805;Laerm;60920;48.748;19.142;2023-06-26T01:37:31;30.89;29.21;38.13;;
72805;Laerm;60920;48.748;19.142;2023-06-26T01:39:56;33.61;29.12;46.50;;
72805;Laerm;60920;48.748;19.142;2023-06-26T01:42:21;33.47;29.08;45.54;;
72805;Laerm;60920;48.748;19.142;2023-06-26T01:44:47;34.25;29.36;45.74;;
72805;Laerm;60920;48.748;19.142;2023-06-26T01:47:14;33.13;29.51;46.17;;
72805;Laerm;60920;48.748;19.142;2023-06-26T01:54:49;31.42;29.29;36.46;;
72805;Laerm;60920;48.748;19.142;2023-06-26T01:57:17;30.99;29.40;38.62;;
72805;Laerm;60920;48.748;19.142;2023-06-26T01:59:43;31.01;29.35;33.59;;
72805;Laerm;60920;48.748;19.142;2023-06-26T02:02:10;31.11;29.41;37.05;;
72805;Laerm;60920;48.748;19.142;2023-06-26T02:04:35;31.28;29.33;40.43;;
72805;Laerm;60920;48.748;19.142;2023-06-26T02:07:02;31.48;29.43;39.40;;
72805;Laerm;60920;48.748;19.142;2023-06-26T02:09:27;31.75;29.56;40.05;;
72805;Laerm;60920;48.748;19.142;2023-06-26T02:11:53;31.48;29.27;38.98;;
72805;Laerm;60920;48.748;19.142;2023-06-26T02:14:18;31.88;29.42;41.38;;
72805;Laerm;60920;48.748;19.142;2023-06-26T02:16:43;32.45;29.70;41.98;;
72805;Laerm;60920;48.748;19.142;2023-06-26T02:19:08;32.19;29.63;43.68;;
72805;Laerm;60920;48.748;19.142;2023-06-26T02:21:34;31.53;29.08;43.07;;
72805;Laerm;60920;48.748;19.142;2023-06-26T02:24:00;31.57;29.63;42.23;;
72805;Laerm;60920;48.748;19.142;2023-06-26T02:26:26;31.37;29.58;37.50;;
72805;Laerm;60920;48.748;19.142;2023-06-26T02:28:51;31.54;29.57;35.51;;
72805;Laerm;60920;48.748;19.142;2023-06-26T02:31:16;31.26;29.49;38.96;;
72805;Laerm;60920;48.748;19.142;2023-06-26T02:33:42;31.13;29.26;33.89;;
72805;Laerm;60920;48.748;19.142;2023-06-26T02:36:07;31.02;29.34;33.09;;
72805;Laerm;60920;48.748;19.142;2023-06-26T02:38:33;31.75;29.48;37.20;;
72805;Laerm;60920;48.748;19.142;2023-06-26T02:40:58;31.57;29.45;36.61;;
72805;Laerm;60920;48.748;19.142;2023-06-26T02:43:24;31.53;29.64;37.54;;
72805;Laerm;60920;48.748;19.142;2023-06-26T02:45:49;31.90;29.77;37.15;;
72805;Laerm;60920;48.748;19.142;2023-06-26T02:48:14;31.48;29.62;34.23;;
72805;Laerm;60920;48.748;19.142;2023-06-26T02:50:39;31.87;29.75;38.90;;
72805;Laerm;60920;48.748;19.142;2023-06-26T02:53:05;31.92;29.99;38.43;;
72805;Laerm;60920;48.748;19.142;2023-06-26T02:55:30;31.80;29.72;36.71;;
72805;Laerm;60920;48.748;19.142;2023-06-26T02:57:55;31.65;29.54;34.79;;
72805;Laerm;60920;48.748;19.142;2023-06-26T03:00:21;31.50;29.49;34.76;;
72805;Laerm;60920;48.748;19.142;2023-06-26T03:02:46;32.24;29.77;38.12;;
72805;Laerm;60920;48.748;19.142;2023-06-26T03:05:11;32.12;30.04;40.54;;
72805;Laerm;60920;48.748;19.142;2023-06-26T03:07:38;32.15;29.94;36.09;;
72805;Laerm;60920;48.748;19.142;2023-06-26T03:10:03;32.10;30.03;36.96;;
72805;Laerm;60920;48.748;19.142;2023-06-26T03:12:30;32.13;29.75;37.74;;
72805;Laerm;60920;48.748;19.142;2023-06-26T03:14:55;31.95;30.08;36.35;;
72805;Laerm;60920;48.748;19.142;2023-06-26T03:17:21;32.00;30.21;36.40;;
72805;Laerm;60920;48.748;19.142;2023-06-26T03:19:46;32.41;30.01;36.87;;
72805;Laerm;60920;48.748;19.142;2023-06-26T03:22:11;32.31;30.29;36.18;;
72805;Laerm;60920;48.748;19.142;2023-06-26T03:24:36;32.67;30.28;35.78;;
72805;Laerm;60920;48.748;19.142;2023-06-26T03:27:02;32.69;29.98;37.56;;
72805;Laerm;60920;48.748;19.142;2023-06-26T03:29:28;32.19;30.10;40.84;;
72805;Laerm;60920;48.748;19.142;2023-06-26T03:31:55;32.92;30.53;37.34;;
72805;Laerm;60920;48.748;19.142;2023-06-26T03:34:20;32.97;30.70;38.55;;
72805;Laerm;60920;48.748;19.142;2023-06-26T03:36:46;33.08;30.29;37.78;;
72805;Laerm;60920;48.748;19.142;2023-06-26T03:39:11;32.73;30.05;37.66;;
72805;Laerm;60920;48.748;19.142;2023-06-26T03:41:37;33.27;30.76;38.19;;
72805;Laerm;60920;48.748;19.142;2023-06-26T03:44:02;33.10;30.43;36.56;;
72805;Laerm;60920;48.748;19.142;2023-06-26T03:46:28;32.56;30.27;38.67;;
72805;Laerm;60920;48.748;19.142;2023-06-26T03:48:53;32.81;30.81;35.91;;
72805;Laerm;60920;48.748;19.142;2023-06-26T03:51:18;33.11;30.89;37.69;;
72805;Laerm;60920;48.748;19.142;2023-06-26T03:53:44;33.13;30.32;38.20;;
72805;Laerm;60920;48.748;19.142;2023-06-26T03:56:10;32.88;30.68;40.42;;
72805;Laerm;60920;48.748;19.142;2023-06-26T03:58:35;33.62;30.75;39.12;;
72805;Laerm;60920;48.748;19.142;2023-06-26T04:01:00;33.19;30.62;37.45;;
72805;Laerm;60920;48.748;19.142;2023-06-26T04:03:26;32.64;30.71;39.90;;
72805;Laerm;60920;48.748;19.142;2023-06-26T04:05:51;32.63;30.52;38.60;;
72805;Laerm;60920;48.748;19.142;2023-06-26T04:08:16;32.79;30.62;35.70;;
72805;Laerm;60920;48.748;19.142;2023-06-26T04:10:42;32.86;30.65;36.72;;
72805;Laerm;60920;48.748;19.142;2023-06-26T04:13:07;32.61;30.76;35.10;;
72805;Laerm;60920;48.748;19.142;2023-06-26T04:15:32;32.92;30.49;35.53;;
72805;Laerm;60920;48.748;19.142;2023-06-26T04:17:58;32.70;30.60;37.76;;
72805;Laerm;60920;48.748;19.142;2023-06-26T04:20:23;33.39;31.11;37.41;;
72805;Laerm;60920;48.748;19.142;2023-06-26T04:22:49;33.23;30.71;39.67;;
72805;Laerm;60920;48.748;19.142;2023-06-26T04:25:14;33.18;30.88;37.76;;
72805;Laerm;60920;48.748;19.142;2023-06-26T04:27:40;33.10;30.99;37.03;;
72805;Laerm;60920;48.748;19.142;2023-06-26T04:30:05;33.07;30.55;35.62;;
72805;Laerm;60920;48.748;19.142;2023-06-26T04:32:31;33.02;30.46;37.77;;
72805;Laerm;60920;48.748;19.142;2023-06-26T04:34:56;33.35;30.87;41.92;;
72805;Laerm;60920;48.748;19.142;2023-06-26T04:37:21;33.69;31.00;37.94;;
72805;Laerm;60920;48.748;19.142;2023-06-26T04:39:47;33.15;30.61;38.27;;
72805;Laerm;60920;48.748;19.142;2023-06-26T04:42:12;33.65;31.30;36.92;;
72805;Laerm;60920;48.748;19.142;2023-06-26T04:44:38;33.17;31.04;36.00;;
72805;Laerm;60920;48.748;19.142;2023-06-26T04:47:03;33.87;31.50;38.06;;
72805;Laerm;60920;48.748;19.142;2023-06-26T04:49:29;33.71;31.21;39.91;;
72805;Laerm;60920;48.748;19.142;2023-06-26T04:51:55;33.41;31.09;39.28;;
72805;Laerm;60920;48.748;19.142;2023-06-26T04:54:20;33.42;31.15;35.82;;
72805;Laerm;60920;48.748;19.142;2023-06-26T04:56:46;33.41;30.64;36.04;;
72805;Laerm;60920;48.748;19.142;2023-06-26T04:59:12;33.83;30.91;39.11;;
72805;Laerm;60920;48.748;19.142;2023-06-26T05:01:38;33.89;31.03;42.44;;
72805;Laerm;60920;48.748;19.142;2023-06-26T05:04:04;33.23;30.95;38.06;;
72805;Laerm;60920;48.748;19.142;2023-06-26T05:06:29;33.73;31.27;40.13;;
72805;Laerm;60920;48.748;19.142;2023-06-26T05:08:55;33.37;30.89;37.82;;
72805;Laerm;60920;48.748;19.142;2023-06-26T05:11:20;33.42;30.44;36.84;;
72805;Laerm;60920;48.748;19.142;2023-06-26T05:13:45;33.32;31.14;36.63;;
72805;Laerm;60920;48.748;19.142;2023-06-26T05:16:10;33.59;31.30;42.22;;
72805;Laerm;60920;48.748;19.142;2023-06-26T05:18:36;33.67;31.50;36.28;;
72805;Laerm;60920;48.748;19.142;2023-06-26T05:21:01;33.59;30.79;40.18;;
72805;Laerm;60920;48.748;19.142;2023-06-26T05:23:27;35.85;31.26;53.60;;
72805;Laerm;60920;48.748;19.142;2023-06-26T05:25:55;33.63;31.45;37.19;;
72805;Laerm;60920;48.748;19.142;2023-06-26T05:28:20;34.23;30.92;41.74;;
72805;Laerm;60920;48.748;19.142;2023-06-26T05:30:47;33.71;31.29;44.13;;
72805;Laerm;60920;48.748;19.142;2023-06-26T05:33:13;33.77;30.76;42.43;;
72805;Laerm;60920;48.748;19.142;2023-06-26T05:35:39;33.68;31.29;39.43;;
72805;Laerm;60920;48.748;19.142;2023-06-26T05:38:06;33.52;30.64;37.74;;
72805;Laerm;60920;48.748;19.142;2023-06-26T05:40:31;34.04;31.67;42.57;;
72805;Laerm;60920;48.748;19.142;2023-06-26T05:42:57;34.51;31.38;44.21;;
72805;Laerm;60920;48.748;19.142;2023-06-26T05:45:22;34.12;31.47;40.76;;
72805;Laerm;60920;48.748;19.142;2023-06-26T05:47:47;36.36;31.34;52.25;;
72805;Laerm;60920;48.748;19.142;2023-06-26T05:50:16;34.36;31.02;45.00;;
72805;Laerm;60920;48.748;19.142;2023-06-26T05:52:42;33.74;31.29;38.06;;
72805;Laerm;60920;48.748;19.142;2023-06-26T05:55:09;34.10;31.27;41.70;;
72805;Laerm;60920;48.748;19.142;2023-06-26T05:57:34;34.28;31.06;42.94;;
72805;Laerm;60920;48.748;19.142;2023-06-26T06:00:02;33.65;31.07;47.13;;
72805;Laerm;60920;48.748;19.142;2023-06-26T06:02:28;33.28;30.60;37.07;;
72805;Laerm;60920;48.748;19.142;2023-06-26T06:04:53;34.68;31.23;47.19;;
72805;Laerm;60920;48.748;19.142;2023-06-26T06:07:18;34.55;31.28;41.75;;
72805;Laerm;60920;48.748;19.142;2023-06-26T06:09:44;34.12;30.95;45.57;;
72805;Laerm;60920;48.748;19.142;2023-06-26T06:12:09;33.20;30.33;36.75;;
72805;Laerm;60920;48.748;19.142;2023-06-26T06:14:34;33.14;30.93;40.49;;
72805;Laerm;60920;48.748;19.142;2023-06-26T06:17:00;33.60;30.62;42.33;;
72805;Laerm;60920;48.748;19.142;2023-06-26T06:19:25;33.38;30.83;41.31;;
72805;Laerm;60920;48.748;19.142;2023-06-26T06:21:51;33.65;30.58;40.65;;
72805;Laerm;60920;48.748;19.142;2023-06-26T06:24:16;33.04;30.06;37.22;;
72805;Laerm;60920;48.748;19.142;2023-06-26T06:26:41;33.45;30.64;42.35;;
72805;Laerm;60920;48.748;19.142;2023-06-26T06:29:07;33.39;30.29;39.84;;
72805;Laerm;60920;48.748;19.142;2023-06-26T06:31:32;33.00;30.08;37.00;;
72805;Laerm;60920;48.748;19.142;2023-06-26T06:33:57;33.58;30.79;41.86;;
72805;Laerm;60920;48.748;19.142;2023-06-26T06:36:23;33.31;29.60;42.06;;
72805;Laerm;60920;48.748;19.142;2023-06-26T06:38:48;33.62;30.48;37.52;;
72805;Laerm;60920;48.748;19.142;2023-06-26T06:41:13;32.38;29.80;36.66;;
72805;Laerm;60920;48.748;19.142;2023-06-26T06:43:39;33.46;30.57;39.93;;
72805;Laerm;60920;48.748;19.142;2023-06-26T06:46:05;32.57;29.97;35.60;;
72805;Laerm;60920;48.748;19.142;2023-06-26T06:48:31;32.87;30.16;38.59;;
72805;Laerm;60920;48.748;19.142;2023-06-26T06:50:56;33.35;29.91;38.28;;
72805;Laerm;60920;48.748;19.142;2023-06-26T06:53:21;32.73;29.14;37.53;;
72805;Laerm;60920;48.748;19.142;2023-06-26T06:55:48;33.57;30.02;43.25;;
72805;Laerm;60920;48.748;19.142;2023-06-26T06:58:13;33.10;30.29;37.71;;
72805;Laerm;60920;48.748;19.142;2023-06-26T07:00:39;32.80;29.52;39.65;;
72805;Laerm;60920;48.748;19.142;2023-06-26T07:03:04;32.44;29.31;41.64;;
72805;Laerm;60920;48.748;19.142;2023-06-26T07:05:29;32.92;30.29;41.24;;
72805;Laerm;60920;48.748;19.142;2023-06-26T07:07:54;39.83;30.13;59.41;;
72805;Laerm;60920;48.748;19.142;2023-06-26T07:10:20;32.51;30.03;40.05;;
72805;Laerm;60920;48.748;19.142;2023-06-26T07:12:45;32.19;29.34;38.31;;
72805;Laerm;60920;48.748;19.142;2023-06-26T07:15:10;32.97;30.16;36.58;;
72805;Laerm;60920;48.748;19.142;2023-06-26T07:17:36;32.69;29.78;39.79;;
72805;Laerm;60920;48.748;19.142;2023-06-26T07:20:09;32.20;29.36;38.37;;
72805;Laerm;60920;48.748;19.142;2023-06-26T07:22:40;32.48;29.56;35.94;;
72805;Laerm;60920;48.748;19.142;2023-06-26T07:25:08;33.05;29.88;42.77;;
72805;Laerm;60920;48.748;19.142;2023-06-26T07:27:39;33.08;29.99;39.10;;
72805;Laerm;60920;48.748;19.142;2023-06-26T07:30:05;33.02;29.95;44.02;;
72805;Laerm;60920;48.748;19.142;2023-06-26T07:32:30;32.26;29.52;39.08;;
72805;Laerm;60920;48.748;19.142;2023-06-26T07:34:56;33.24;30.12;41.68;;
72805;Laerm;60920;48.748;19.142;2023-06-26T07:37:21;32.82;29.55;38.95;;
72805;Laerm;60920;48.748;19.142;2023-06-26T07:39:47;32.87;30.19;38.06;;
72805;Laerm;60920;48.748;19.142;2023-06-26T07:42:12;33.03;30.07;37.49;;
72805;Laerm;60920;48.748;19.142;2023-06-26T07:44:38;32.69;29.94;38.04;;
72805;Laerm;60920;48.748;19.142;2023-06-26T07:47:03;33.24;29.19;41.74;;
72805;Laerm;60920;48.748;19.142;2023-06-26T07:49:29;32.33;29.43;42.04;;
72805;Laerm;60920;48.748;19.142;2023-06-26T07:51:54;32.59;29.62;38.54;;
72805;Laerm;60920;48.748;19.142;2023-06-26T07:54:19;33.04;29.80;41.11;;
72805;Laerm;60920;48.748;19.142;2023-06-26T07:56:55;33.70;30.51;45.25;;
72805;Laerm;60920;48.748;19.142;2023-06-26T07:59:24;33.94;29.93;49.62;;
72805;Laerm;60920;48.748;19.142;2023-06-26T08:01:52;34.85;30.36;52.69;;
72805;Laerm;60920;48.748;19.142;2023-06-26T08:04:18;32.91;29.82;41.88;;
72805;Laerm;60920;48.748;19.142;2023-06-26T08:06:44;34.08;30.33;46.89;;
72805;Laerm;60920;48.748;19.142;2023-06-26T08:09:09;32.47;29.80;38.39;;
72805;Laerm;60920;48.748;19.142;2023-06-26T08:11:35;33.80;29.53;43.86;;
72805;Laerm;60920;48.748;19.142;2023-06-26T08:14:00;32.84;30.27;41.12;;
72805;Laerm;60920;48.748;19.142;2023-06-26T08:16:26;34.49;30.18;50.10;;
72805;Laerm;60920;48.748;19.142;2023-06-26T08:18:52;32.49;29.53;38.25;;
72805;Laerm;60920;48.748;19.142;2023-06-26T08:21:17;32.93;29.97;38.45;;
72805;Laerm;60920;48.748;19.142;2023-06-26T08:23:42;32.69;29.43;41.58;;
72805;Laerm;60920;48.748;19.142;2023-06-26T08:26:08;34.00;29.00;50.80;;
72805;Laerm;60920;48.748;19.142;2023-06-26T08:28:33;33.16;29.63;45.55;;
72805;Laerm;60920;48.748;19.142;2023-06-26T08:30:59;33.16;29.62;41.40;;
72805;Laerm;60920;48.748;19.142;2023-06-26T08:33:25;32.93;29.51;40.69;;
72805;Laerm;60920;48.748;19.142;2023-06-26T08:35:50;32.87;29.50;39.06;;
72805;Laerm;60920;48.748;19.142;2023-06-26T08:38:16;32.60;28.65;38.97;;
72805;Laerm;60920;48.748;19.142;2023-06-26T08:40:41;32.55;29.45;41.53;;
72805;Laerm;60920;48.748;19.142;2023-06-26T08:43:06;33.10;29.01;43.21;;
72805;Laerm;60920;48.748;19.142;2023-06-26T08:45:32;32.34;29.24;38.99;;
72805;Laerm;60920;48.748;19.142;2023-06-26T08:47:58;33.53;29.85;44.40;;
72805;Laerm;60920;48.748;19.142;2023-06-26T08:50:24;32.75;29.45;39.09;;
72805;Laerm;60920;48.748;19.142;2023-06-26T08:53:09;33.27;29.89;46.76;;
72805;Laerm;60920;48.748;19.142;2023-06-26T08:55:38;32.59;29.08;40.30;;
72805;Laerm;60920;48.748;19.142;2023-06-26T08:58:06;32.67;29.74;37.45;;
72805;Laerm;60920;48.748;19.142;2023-06-26T09:00:31;32.32;28.72;39.44;;
72805;Laerm;60920;48.748;19.142;2023-06-26T09:02:57;32.47;28.90;38.22;;
72805;Laerm;60920;48.748;19.142;2023-06-26T09:05:23;31.83;28.71;44.95;;
72805;Laerm;60920;48.748;19.142;2023-06-26T09:07:48;32.33;28.46;54.50;;
72805;Laerm;60920;48.748;19.142;2023-06-26T09:10:13;32.02;28.53;38.51;;
72805;Laerm;60920;48.748;19.142;2023-06-26T09:12:39;33.11;29.52;43.11;;
72805;Laerm;60920;48.748;19.142;2023-06-26T09:15:05;33.33;30.08;39.97;;
72805;Laerm;60920;48.748;19.142;2023-06-26T09:17:30;33.19;29.07;41.61;;
72805;Laerm;60920;48.748;19.142;2023-06-26T09:19:56;35.57;30.73;49.74;;
72805;Laerm;60920;48.748;19.142;2023-06-26T09:22:21;32.84;29.29;41.06;;
72805;Laerm;60920;48.748;19.142;2023-06-26T09:24:48;33.65;29.35;42.59;;
72805;Laerm;60920;48.748;19.142;2023-06-26T09:27:13;32.98;29.69;42.93;;
72805;Laerm;60920;48.748;19.142;2023-06-26T09:29:38;32.22;29.23;38.12;;
72805;Laerm;60920;48.748;19.142;2023-06-26T09:32:04;32.37;28.08;38.55;;
72805;Laerm;60920;48.748;19.142;2023-06-26T09:34:30;33.75;28.64;44.00;;
72805;Laerm;60920;48.748;19.142;2023-06-26T09:36:55;32.19;29.07;37.39;;
72805;Laerm;60920;48.748;19.142;2023-06-26T09:39:20;31.84;28.07;38.90;;
72805;Laerm;60920;48.748;19.142;2023-06-26T09:41:46;32.59;28.95;39.96;;
72805;Laerm;60920;48.748;19.142;2023-06-26T09:44:14;32.72;28.85;46.59;;
72805;Laerm;60920;48.748;19.142;2023-06-26T09:46:40;33.01;29.38;39.03;;
72805;Laerm;60920;48.748;19.142;2023-06-26T09:49:06;33.36;29.46;46.20;;
72805;Laerm;60920;48.748;19.142;2023-06-26T09:51:35;32.71;29.04;38.19;;
72805;Laerm;60920;48.748;19.142;2023-06-26T09:54:01;32.21;28.29;38.00;;
72805;Laerm;60920;48.748;19.142;2023-06-26T09:56:27;32.05;28.96;44.98;;
72805;Laerm;60920;48.748;19.142;2023-06-26T09:58:55;33.70;29.17;47.75;;
72805;Laerm;60920;48.748;19.142;2023-06-26T10:01:21;32.41;28.50;40.12;;
72805;Laerm;60920;48.748;19.142;2023-06-26T10:03:46;32.90;29.13;47.45;;
72805;Laerm;60920;48.748;19.142;2023-06-26T10:06:11;32.72;28.55;51.14;;
72805;Laerm;60920;48.748;19.142;2023-06-26T10:08:39;33.47;29.09;38.36;;
72805;Laerm;60920;48.748;19.142;2023-06-26T10:11:04;32.86;29.26;40.13;;
72805;Laerm;60920;48.748;19.142;2023-06-26T10:13:35;33.14;28.86;45.28;;
72805;Laerm;60920;48.748;19.142;2023-06-26T10:16:02;32.41;28.07;42.46;;
72805;Laerm;60920;48.748;19.142;2023-06-26T10:18:27;31.54;28.53;37.15;;
72805;Laerm;60920;48.748;19.142;2023-06-26T10:20:53;32.02;28.25;40.24;;
72805;Laerm;60920;48.748;19.142;2023-06-26T10:23:20;31.54;28.35;39.10;;
72805;Laerm;60920;48.748;19.142;2023-06-26T10:25:48;33.35;29.29;40.07;;
72805;Laerm;60920;48.748;19.142;2023-06-26T10:28:13;31.97;28.95;44.81;;
72805;Laerm;60920;48.748;19.142;2023-06-26T10:30:41;33.49;29.60;46.82;;
72805;Laerm;60920;48.748;19.142;2023-06-26T10:33:07;32.05;29.07;40.71;;
72805;Laerm;60920;48.748;19.142;2023-06-26T10:35:34;32.94;29.15;41.18;;
72805;Laerm;60920;48.748;19.142;2023-06-26T10:38:07;31.73;28.70;36.71;;
72805;Laerm;60920;48.748;19.142;2023-06-26T10:40:45;33.18;28.65;39.85;;
72805;Laerm;60920;48.748;19.142;2023-06-26T10:43:11;31.98;28.29;37.56;;
72805;Laerm;60920;48.748;19.142;2023-06-26T10:45:38;32.21;27.90;41.31;;
72805;Laerm;60920;48.748;19.142;2023-06-26T10:48:07;32.59;28.81;40.69;;
72805;Laerm;60920;48.748;19.142;2023-06-26T10:50:33;34.14;28.64;43.33;;
72805;Laerm;60920;48.748;19.142;2023-06-26T10:55:34;31.99;27.83;40.04;;
72805;Laerm;60920;48.748;19.142;2023-06-26T10:58:00;34.10;30.45;48.75;;
72805;Laerm;60920;48.748;19.142;2023-06-26T11:00:26;31.96;28.76;41.87;;
72805;Laerm;60920;48.748;19.142;2023-06-26T11:02:52;32.68;29.50;41.14;;
72805;Laerm;60920;48.748;19.142;2023-06-26T11:05:28;32.57;28.62;40.44;;
72805;Laerm;60920;48.748;19.142;2023-06-26T11:08:04;32.37;29.00;42.29;;
72805;Laerm;60920;48.748;19.142;2023-06-26T11:10:30;32.35;29.01;38.14;;
72805;Laerm;60920;48.748;19.142;2023-06-26T11:13:12;33.64;29.84;43.99;;
72805;Laerm;60920;48.748;19.142;2023-06-26T11:15:38;33.81;29.84;41.15;;
72805;Laerm;60920;48.748;19.142;2023-06-26T11:18:03;33.32;28.81;42.51;;
72805;Laerm;60920;48.748;19.142;2023-06-26T11:20:28;34.58;29.64;51.17;;
72805;Laerm;60920;48.748;19.142;2023-06-26T11:22:54;33.55;28.61;42.66;;
72805;Laerm;60920;48.748;19.142;2023-06-26T11:25:20;33.44;28.21;41.26;;
72805;Laerm;60920;48.748;19.142;2023-06-26T11:27:45;33.31;28.24;39.62;;
72805;Laerm;60920;48.748;19.142;2023-06-26T11:30:11;32.81;28.04;46.45;;
72805;Laerm;60920;48.748;19.142;2023-06-26T11:32:40;32.51;28.72;56.27;;
72805;Laerm;60920;48.748;19.142;2023-06-26T11:35:05;33.12;28.50;51.85;;
72805;Laerm;60920;48.748;19.142;2023-06-26T11:37:34;32.84;28.64;50.61;;
72805;Laerm;60920;48.748;19.142;2023-06-26T11:39:59;32.47;29.05;47.64;;
72805;Laerm;60920;48.748;19.142;2023-06-26T11:42:24;31.99;28.20;48.35;;
72805;Laerm;60920;48.748;19.142;2023-06-26T11:44:50;32.76;28.39;49.84;;
72805;Laerm;60920;48.748;19.142;2023-06-26T11:47:17;34.02;28.48;50.26;;
72805;Laerm;60920;48.748;19.142;2023-06-26T11:49:46;32.76;28.52;45.28;;
72805;Laerm;60920;48.748;19.142;2023-06-26T11:52:12;32.39;29.01;39.30;;
72805;Laerm;60920;48.748;19.142;2023-06-26T11:54:37;32.42;28.41;41.12;;
72805;Laerm;60920;48.748;19.142;2023-06-26T11:57:04;32.18;28.04;47.45;;
72805;Laerm;60920;48.748;19.142;2023-06-26T11:59:36;32.63;28.46;39.49;;
72805;Laerm;60920;48.748;19.142;2023-06-26T12:02:04;33.50;29.25;51.19;;
72805;Laerm;60920;48.748;19.142;2023-06-26T12:04:29;32.76;28.93;49.56;;
72805;Laerm;60920;48.748;19.142;2023-06-26T12:06:55;34.38;29.17;60.14;;
72805;Laerm;60920;48.748;19.142;2023-06-26T12:09:24;35.49;29.10;56.32;;
72805;Laerm;60920;48.748;19.142;2023-06-26T12:11:53;34.63;29.81;50.89;;
72805;Laerm;60920;48.748;19.142;2023-06-26T12:14:20;33.76;30.37;50.99;;
72805;Laerm;60920;48.748;19.142;2023-06-26T12:16:45;35.42;29.55;57.81;;
72805;Laerm;60920;48.748;19.142;2023-06-26T12:19:12;35.94;29.80;63.20;;
72805;Laerm;60920;48.748;19.142;2023-06-26T12:24:03;34.25;30.54;49.90;;
72805;Laerm;60920;48.748;19.142;2023-06-26T12:26:29;34.99;29.92;56.16;;
72805;Laerm;60920;48.748;19.142;2023-06-26T12:29:13;34.16;30.55;52.96;;
72805;Laerm;60920;48.748;19.142;2023-06-26T12:31:40;34.68;29.47;52.24;;
72805;Laerm;60920;48.748;19.142;2023-06-26T12:34:10;33.51;28.88;43.56;;
72805;Laerm;60920;48.748;19.142;2023-06-26T12:36:44;33.18;29.65;43.61;;
72805;Laerm;60920;48.748;19.142;2023-06-26T12:39:12;33.61;29.48;57.13;;
72805;Laerm;60920;48.748;19.142;2023-06-26T12:42:13;33.59;28.61;52.37;;
72805;Laerm;60920;48.748;19.142;2023-06-26T12:44:30;34.36;29.93;54.53;;
72805;Laerm;60920;48.748;19.142;2023-06-26T12:46:59;32.96;28.10;52.59;;
72805;Laerm;60920;48.748;19.142;2023-06-26T12:49:38;33.20;29.38;42.48;;
72805;Laerm;60920;48.748;19.142;2023-06-26T12:52:04;33.49;29.72;42.55;;
72805;Laerm;60920;48.748;19.142;2023-06-26T12:54:30;33.72;29.85;40.51;;
72805;Laerm;60920;48.748;19.142;2023-06-26T12:56:57;35.04;29.48;45.13;;
72805;Laerm;60920;48.748;19.142;2023-06-26T12:59:23;34.01;29.40;42.69;;
72805;Laerm;60920;48.748;19.142;2023-06-26T13:01:48;33.33;29.98;42.71;;
72805;Laerm;60920;48.748;19.142;2023-06-26T13:04:14;32.67;29.01;41.11;;
72805;Laerm;60920;48.748;19.142;2023-06-26T13:06:40;32.79;29.21;39.50;;
72805;Laerm;60920;48.748;19.142;2023-06-26T13:09:05;33.52;30.54;39.56;;
72805;Laerm;60920;48.748;19.142;2023-06-26T13:11:31;33.28;29.67;43.95;;
72805;Laerm;60920;48.748;19.142;2023-06-26T13:13:56;34.07;30.41;42.50;;
72805;Laerm;60920;48.748;19.142;2023-06-26T13:16:21;34.12;29.28;45.12;;
72805;Laerm;60920;48.748;19.142;2023-06-26T13:18:47;33.73;30.13;43.36;;
72805;Laerm;60920;48.748;19.142;2023-06-26T13:21:13;33.31;29.37;43.23;;
72805;Laerm;60920;48.748;19.142;2023-06-26T13:23:39;34.44;29.23;45.77;;
72805;Laerm;60920;48.748;19.142;2023-06-26T13:26:04;33.89;30.33;45.49;;
72805;Laerm;60920;48.748;19.142;2023-06-26T13:28:30;33.74;28.61;43.84;;
72805;Laerm;60920;48.748;19.142;2023-06-26T13:30:55;33.53;29.29;45.42;;
72805;Laerm;60920;48.748;19.142;2023-06-26T13:33:20;34.22;29.62;45.73;;
72805;Laerm;60920;48.748;19.142;2023-06-26T13:35:46;33.65;29.92;46.14;;
72805;Laerm;60920;48.748;19.142;2023-06-26T13:38:11;34.54;30.91;42.66;;
72805;Laerm;60920;48.748;19.142;2023-06-26T13:40:37;34.12;30.26;44.84;;